Airfield :
LOGIN :

Register | Disclaimer

   EN    FR    IT 

 










Legend :    VFR   Marginal VFR   IFR   Intensive IFR   Very Intensive IFR
Visi :
Ceiling :
>= 8 km
>= 3000ft
5 to 8 km
1000 to 3000 ft
1500m to 5 km
500 to 1000 ft
800 to 1500m
200 to 500 ft
< 800m
< 200 ft
Symbols :   Thunderstorms  Fog  Heavy snow  Heavy precipitations  Wind > 20 kt
SIGMETs :     Misc.  Thunderstorms  Icing  Turbulence  Mountain Waves  Volcanic Ashes






- Airport Elevation : 184 ft
- IATA code : BRU


EBBR - Bruxelles

CURRENT METAR :
  • 261550Z 26007KT 9999 FEW040TCU 18/13 Q1014 NOSIG

EXPIRED METARs :
  • 261520Z 23007KT 200V270 9999 FEW040TCU 17/13 Q1014 RESHRA NOSIG
  • 261450Z 23008KT 190V250 9999 -SHRA FEW040CB 15/13 Q1013 NOSIG
  • 261420Z 26013KT 9999 -SHRA SCT030CB 15/12 Q1013 RETS TEMPO 4500 TSRA
  • 261350Z 19012G24KT 160V240 7000 SHRA SCT040CB 21/12 Q1013 RETS TEMPO 18015G25KT 3000 TSRA
  • 261320Z 15010KT 120V180 9999 FEW040CB 22/14 Q1012 TEMPO 18015G25KT 3000 TSRA
  • 261250Z 16009KT 130V200 9999 FEW035 21/14 Q1013 TEMPO FM1400 3000 TSRA
  • 261220Z 17008KT 130V200 9999 FEW030 20/15 Q1013 NOSIG
  • 261150Z 16008KT 9999 FEW030 18/13 Q1013 NOSIG
  • 261120Z 11004KT 090V150 9999 -SHRA SCT030 18/14 Q1013 NOSIG

TAF TAF EBBR
Valid from the 26 at 12:00 until the 27 at 18:00 UTC


261120Z 2612/2718 16006KT 9999 FEW030
TEMPO 2612/2617 4500 SHRA SCT040CB
PROB40
TEMPO 2613/2617 23015G25KT 2500 TSRA SCT015 BKN030CB
TEMPO 2709/2718 4000 SHRA BKN020CB



MET'MAP, your aeronautical weather chart ! - Copyright ORBIFLY December 2007 - Disclaimer

ORBIFLY MET'MAP TEAM :

Programming & Development : Alexandra Zaïnal
Original concept : Baudouin d'Aumeries
Technical & hardware support : Manuel Goepfert
Assistance : Marc-Olivier Méhu




SOURCES & CREDITS :

   NOAA